sensor_id;sensor_type;location;lat;lon;timestamp;temperature;humidity
12223;DHT22;6174;49.058;8.524;2023-04-24T05:01:58;10.90;99.90
12223;DHT22;6174;49.058;8.524;2023-04-24T05:04:25;10.90;99.90
12223;DHT22;6174;49.058;8.524;2023-04-24T05:06:52;10.90;99.90
12223;DHT22;6174;49.058;8.524;2023-04-24T05:09:18;10.80;99.90
12223;DHT22;6174;49.058;8.524;2023-04-24T05:11:45;10.80;99.90
12223;DHT22;6174;49.058;8.524;2023-04-24T05:14:12;10.80;99.90
12223;DHT22;6174;49.058;8.524;2023-04-24T05:16:39;10.80;99.90
12223;DHT22;6174;49.058;8.524;2023-04-24T05:19:07;10.90;99.90
12223;DHT22;6174;49.058;8.524;2023-04-24T05:21:34;10.90;99.90
12223;DHT22;6174;49.058;8.524;2023-04-24T05:24:00;10.90;99.90
12223;DHT22;6174;49.058;8.524;2023-04-24T05:26:27;10.90;99.90
12223;DHT22;6174;49.058;8.524;2023-04-24T05:28:54;11.00;99.90
12223;DHT22;6174;49.058;8.524;2023-04-24T05:31:20;11.00;99.90
12223;DHT22;6174;49.058;8.524;2023-04-24T05:33:47;11.00;99.90
12223;DHT22;6174;49.058;8.524;2023-04-24T05:36:15;11.10;99.90
12223;DHT22;6174;49.058;8.524;2023-04-24T05:38:42;11.10;99.90
12223;DHT22;6174;49.058;8.524;2023-04-24T05:41:09;11.30;99.90
12223;DHT22;6174;49.058;8.524;2023-04-24T05:43:35;11.30;99.90
12223;DHT22;6174;49.058;8.524;2023-04-24T05:46:02;11.40;99.90
12223;DHT22;6174;49.058;8.524;2023-04-24T05:48:29;11.40;99.90
12223;DHT22;6174;49.058;8.524;2023-04-24T05:50:56;11.40;99.90
12223;DHT22;6174;49.058;8.524;2023-04-24T05:53:24;11.40;99.90
12223;DHT22;6174;49.058;8.524;2023-04-24T05:55:51;11.30;99.90
12223;DHT22;6174;49.058;8.524;2023-04-24T05:58:17;11.30;99.90
12223;DHT22;6174;49.058;8.524;2023-04-24T06:00:44;11.40;99.90
12223;DHT22;6174;49.058;8.524;2023-04-24T06:03:12;11.40;99.90
12223;DHT22;6174;49.058;8.524;2023-04-24T06:05:38;11.50;99.90
12223;DHT22;6174;49.058;8.524;2023-04-24T06:08:05;11.50;99.90
12223;DHT22;6174;49.058;8.524;2023-04-24T06:10:33;11.60;99.90
12223;DHT22;6174;49.058;8.524;2023-04-24T06:13:00;11.60;99.90
12223;DHT22;6174;49.058;8.524;2023-04-24T06:15:28;11.60;99.90
12223;DHT22;6174;49.058;8.524;2023-04-24T06:17:55;11.50;99.90
12223;DHT22;6174;49.058;8.524;2023-04-24T06:20:22;11.60;99.90
12223;DHT22;6174;49.058;8.524;2023-04-24T06:22:49;11.80;99.90
12223;DHT22;6174;49.058;8.524;2023-04-24T06:25:16;11.90;99.90
12223;DHT22;6174;49.058;8.524;2023-04-24T06:27:44;12.00;99.90
12223;DHT22;6174;49.058;8.524;2023-04-24T06:30:11;12.10;99.90
12223;DHT22;6174;49.058;8.524;2023-04-24T06:32:38;12.20;99.90
12223;DHT22;6174;49.058;8.524;2023-04-24T06:35:06;12.10;99.90
12223;DHT22;6174;49.058;8.524;2023-04-24T06:37:33;12.10;99.90
12223;DHT22;6174;49.058;8.524;2023-04-24T06:40:00;12.20;99.90
12223;DHT22;6174;49.058;8.524;2023-04-24T06:42:27;12.10;99.90
12223;DHT22;6174;49.058;8.524;2023-04-24T06:44:55;12.10;99.90
12223;DHT22;6174;49.058;8.524;2023-04-24T06:47:21;12.20;99.90
12223;DHT22;6174;49.058;8.524;2023-04-24T06:49:48;12.20;99.90
12223;DHT22;6174;49.058;8.524;2023-04-24T06:52:16;12.30;99.90
12223;DHT22;6174;49.058;8.524;2023-04-24T06:54:43;12.30;99.90
12223;DHT22;6174;49.058;8.524;2023-04-24T06:57:09;12.50;99.90
12223;DHT22;6174;49.058;8.524;2023-04-24T06:59:36;12.70;99.90
12223;DHT22;6174;49.058;8.524;2023-04-24T07:02:04;12.80;99.90
12223;DHT22;6174;49.058;8.524;2023-04-24T07:04:31;12.80;99.90
12223;DHT22;6174;49.058;8.524;2023-04-24T07:06:58;12.80;99.90
12223;DHT22;6174;49.058;8.524;2023-04-24T07:09:25;12.80;99.90
12223;DHT22;6174;49.058;8.524;2023-04-24T07:11:53;12.90;99.90
12223;DHT22;6174;49.058;8.524;2023-04-24T07:14:21;13.30;99.90
12223;DHT22;6174;49.058;8.524;2023-04-24T07:16:48;13.50;99.90
12223;DHT22;6174;49.058;8.524;2023-04-24T07:19:16;13.50;99.90
12223;DHT22;6174;49.058;8.524;2023-04-24T07:21:43;13.30;99.90
12223;DHT22;6174;49.058;8.524;2023-04-24T07:24:10;13.10;99.90
12223;DHT22;6174;49.058;8.524;2023-04-24T07:26:38;12.80;99.90
12223;DHT22;6174;49.058;8.524;2023-04-24T07:29:05;12.60;99.90
12223;DHT22;6174;49.058;8.524;2023-04-24T07:31:32;12.30;99.90
12223;DHT22;6174;49.058;8.524;2023-04-24T07:33:59;12.20;99.90
12223;DHT22;6174;49.058;8.524;2023-04-24T07:36:27;12.20;99.90
12223;DHT22;6174;49.058;8.524;2023-04-24T07:38:54;12.10;99.90
12223;DHT22;6174;49.058;8.524;2023-04-24T07:41:22;12.10;99.90
12223;DHT22;6174;49.058;8.524;2023-04-24T07:43:49;12.20;99.90
12223;DHT22;6174;49.058;8.524;2023-04-24T07:46:16;12.20;99.90
12223;DHT22;6174;49.058;8.524;2023-04-24T07:48:43;12.10;99.90
12223;DHT22;6174;49.058;8.524;2023-04-24T07:51:10;12.00;99.90
12223;DHT22;6174;49.058;8.524;2023-04-24T07:53:40;12.00;99.90
12223;DHT22;6174;49.058;8.524;2023-04-24T07:56:06;11.90;99.90
12223;DHT22;6174;49.058;8.524;2023-04-24T07:58:33;11.80;99.90
12223;DHT22;6174;49.058;8.524;2023-04-24T08:01:00;11.90;99.90
12223;DHT22;6174;49.058;8.524;2023-04-24T08:03:27;11.80;99.90
12223;DHT22;6174;49.058;8.524;2023-04-24T08:05:53;11.60;99.90
12223;DHT22;6174;49.058;8.524;2023-04-24T08:08:21;11.70;99.80
12223;DHT22;6174;49.058;8.524;2023-04-24T08:10:50;11.50;99.90
12223;DHT22;6174;49.058;8.524;2023-04-24T08:13:16;11.40;99.90
12223;DHT22;6174;49.058;8.524;2023-04-24T08:15:43;11.30;99.90
12223;DHT22;6174;49.058;8.524;2023-04-24T08:18:10;11.10;99.90
12223;DHT22;6174;49.058;8.524;2023-04-24T08:20:38;11.10;99.90
12223;DHT22;6174;49.058;8.524;2023-04-24T08:23:05;11.10;99.90
12223;DHT22;6174;49.058;8.524;2023-04-24T08:25:32;11.10;99.90
12223;DHT22;6174;49.058;8.524;2023-04-24T08:28:02;11.10;99.90
12223;DHT22;6174;49.058;8.524;2023-04-24T08:30:29;11.00;99.90
12223;DHT22;6174;49.058;8.524;2023-04-24T08:32:56;11.30;99.90
12223;DHT22;6174;49.058;8.524;2023-04-24T08:35:23;11.30;99.90
12223;DHT22;6174;49.058;8.524;2023-04-24T08:37:49;11.40;99.90
12223;DHT22;6174;49.058;8.524;2023-04-24T08:40:16;11.50;99.90
12223;DHT22;6174;49.058;8.524;2023-04-24T08:42:43;11.40;99.90
12223;DHT22;6174;49.058;8.524;2023-04-24T08:45:12;11.30;99.90
12223;DHT22;6174;49.058;8.524;2023-04-24T08:47:40;11.50;99.90
12223;DHT22;6174;49.058;8.524;2023-04-24T08:50:07;11.50;99.90
12223;DHT22;6174;49.058;8.524;2023-04-24T08:52:35;11.50;99.90
12223;DHT22;6174;49.058;8.524;2023-04-24T08:55:02;11.50;99.90
12223;DHT22;6174;49.058;8.524;2023-04-24T08:57:29;11.60;99.90
12223;DHT22;6174;49.058;8.524;2023-04-24T08:59:58;11.70;99.90
12223;DHT22;6174;49.058;8.524;2023-04-24T09:02:26;11.90;99.90
12223;DHT22;6174;49.058;8.524;2023-04-24T09:04:53;12.10;99.90
12223;DHT22;6174;49.058;8.524;2023-04-24T09:07:20;12.40;99.90
12223;DHT22;6174;49.058;8.524;2023-04-24T09:09:50;12.50;99.80
12223;DHT22;6174;49.058;8.524;2023-04-24T09:12:18;12.50;99.90
12223;DHT22;6174;49.058;8.524;2023-04-24T09:14:45;12.50;99.00
12223;DHT22;6174;49.058;8.524;2023-04-24T09:17:12;12.30;99.30
12223;DHT22;6174;49.058;8.524;2023-04-24T09:19:41;12.20;99.90
12223;DHT22;6174;49.058;8.524;2023-04-24T09:22:09;12.10;99.90
12223;DHT22;6174;49.058;8.524;2023-04-24T09:24:36;12.00;99.90
12223;DHT22;6174;49.058;8.524;2023-04-24T09:27:03;11.90;99.90
12223;DHT22;6174;49.058;8.524;2023-04-24T09:29:30;11.70;99.70
12223;DHT22;6174;49.058;8.524;2023-04-24T09:31:58;11.80;99.80
12223;DHT22;6174;49.058;8.524;2023-04-24T09:34:26;11.80;99.50
12223;DHT22;6174;49.058;8.524;2023-04-24T09:36:54;11.60;99.30
12223;DHT22;6174;49.058;8.524;2023-04-24T09:39:21;11.50;99.60
12223;DHT22;6174;49.058;8.524;2023-04-24T09:41:50;11.50;99.90
12223;DHT22;6174;49.058;8.524;2023-04-24T09:44:18;11.50;99.30
12223;DHT22;6174;49.058;8.524;2023-04-24T09:46:51;11.50;99.30
12223;DHT22;6174;49.058;8.524;2023-04-24T09:49:22;11.50;98.40
12223;DHT22;6174;49.058;8.524;2023-04-24T09:51:50;11.60;99.00
12223;DHT22;6174;49.058;8.524;2023-04-24T09:54:19;11.60;98.20
12223;DHT22;6174;49.058;8.524;2023-04-24T09:56:48;11.60;98.40
12223;DHT22;6174;49.058;8.524;2023-04-24T09:59:16;11.80;97.60
12223;DHT22;6174;49.058;8.524;2023-04-24T10:01:43;11.90;97.60
12223;DHT22;6174;49.058;8.524;2023-04-24T10:04:18;12.00;97.90
12223;DHT22;6174;49.058;8.524;2023-04-24T10:06:45;12.00;97.10
12223;DHT22;6174;49.058;8.524;2023-04-24T10:09:12;12.10;96.60
12223;DHT22;6174;49.058;8.524;2023-04-24T10:11:43;12.20;96.20
12223;DHT22;6174;49.058;8.524;2023-04-24T10:14:12;12.20;96.00
12223;DHT22;6174;49.058;8.524;2023-04-24T10:16:39;12.30;96.40
12223;DHT22;6174;49.058;8.524;2023-04-24T10:19:07;12.10;95.90
12223;DHT22;6174;49.058;8.524;2023-04-24T10:21:34;12.30;96.30
12223;DHT22;6174;49.058;8.524;2023-04-24T10:24:01;12.20;96.10
12223;DHT22;6174;49.058;8.524;2023-04-24T10:26:30;12.10;96.30
12223;DHT22;6174;49.058;8.524;2023-04-24T10:28:59;12.20;96.90
12223;DHT22;6174;49.058;8.524;2023-04-24T10:31:26;12.20;96.70
12223;DHT22;6174;49.058;8.524;2023-04-24T10:33:54;12.10;96.50
12223;DHT22;6174;49.058;8.524;2023-04-24T10:36:22;12.00;97.10
12223;DHT22;6174;49.058;8.524;2023-04-24T10:38:53;12.00;96.40
12223;DHT22;6174;49.058;8.524;2023-04-24T10:41:21;12.00;96.40
12223;DHT22;6174;49.058;8.524;2023-04-24T10:43:48;12.00;96.20
12223;DHT22;6174;49.058;8.524;2023-04-24T10:46:31;11.90;96.40
12223;DHT22;6174;49.058;8.524;2023-04-24T10:48:58;11.90;97.00
12223;DHT22;6174;49.058;8.524;2023-04-24T10:51:44;11.80;97.30
12223;DHT22;6174;49.058;8.524;2023-04-24T10:54:25;11.80;97.40
12223;DHT22;6174;49.058;8.524;2023-04-24T10:56:53;11.90;97.80
12223;DHT22;6174;49.058;8.524;2023-04-24T10:59:26;12.00;98.10
12223;DHT22;6174;49.058;8.524;2023-04-24T11:01:55;12.10;98.30
12223;DHT22;6174;49.058;8.524;2023-04-24T11:04:32;12.20;98.10
12223;DHT22;6174;49.058;8.524;2023-04-24T11:07:00;12.30;97.00
12223;DHT22;6174;49.058;8.524;2023-04-24T11:09:30;12.20;97.70
12223;DHT22;6174;49.058;8.524;2023-04-24T11:12:05;12.30;97.60
12223;DHT22;6174;49.058;8.524;2023-04-24T11:15:00;12.30;97.90
12223;DHT22;6174;49.058;8.524;2023-04-24T11:17:29;12.20;97.40
12223;DHT22;6174;49.058;8.524;2023-04-24T11:20:01;12.10;97.50
12223;DHT22;6174;49.058;8.524;2023-04-24T11:22:30;12.00;99.00
12223;DHT22;6174;49.058;8.524;2023-04-24T11:24:59;12.10;99.90
12223;DHT22;6174;49.058;8.524;2023-04-24T11:27:29;12.00;99.90
12223;DHT22;6174;49.058;8.524;2023-04-24T11:30:00;11.90;99.90
12223;DHT22;6174;49.058;8.524;2023-04-24T11:32:30;11.80;99.90
12223;DHT22;6174;49.058;8.524;2023-04-24T11:35:01;11.80;99.90
12223;DHT22;6174;49.058;8.524;2023-04-24T11:37:35;11.80;99.90
12223;DHT22;6174;49.058;8.524;2023-04-24T11:40:03;11.80;99.90
12223;DHT22;6174;49.058;8.524;2023-04-24T11:42:34;11.90;99.90
12223;DHT22;6174;49.058;8.524;2023-04-24T11:45:01;11.90;99.90
12223;DHT22;6174;49.058;8.524;2023-04-24T11:47:31;12.00;99.90
12223;DHT22;6174;49.058;8.524;2023-04-24T11:49:59;12.10;99.80
12223;DHT22;6174;49.058;8.524;2023-04-24T11:52:27;12.00;99.90
12223;DHT22;6174;49.058;8.524;2023-04-24T11:54:54;12.00;99.90
12223;DHT22;6174;49.058;8.524;2023-04-24T11:57:21;12.00;99.20
12223;DHT22;6174;49.058;8.524;2023-04-24T11:59:49;12.00;99.70
12223;DHT22;6174;49.058;8.524;2023-04-24T12:02:22;12.10;99.90
12223;DHT22;6174;49.058;8.524;2023-04-24T12:04:51;12.30;99.70
12223;DHT22;6174;49.058;8.524;2023-04-24T12:07:18;12.20;98.10
12223;DHT22;6174;49.058;8.524;2023-04-24T12:09:46;12.10;98.90
12223;DHT22;6174;49.058;8.524;2023-04-24T12:12:14;12.20;98.50
12223;DHT22;6174;49.058;8.524;2023-04-24T12:14:46;12.20;98.20
12223;DHT22;6174;49.058;8.524;2023-04-24T12:17:14;12.60;99.50
12223;DHT22;6174;49.058;8.524;2023-04-24T12:19:45;13.00;98.20
12223;DHT22;6174;49.058;8.524;2023-04-24T12:22:14;12.70;97.30
12223;DHT22;6174;49.058;8.524;2023-04-24T12:24:57;12.90;99.00
12223;DHT22;6174;49.058;8.524;2023-04-24T12:27:26;13.10;98.60
12223;DHT22;6174;49.058;8.524;2023-04-24T12:29:53;13.00;98.60
12223;DHT22;6174;49.058;8.524;2023-04-24T12:32:20;12.90;98.90
12223;DHT22;6174;49.058;8.524;2023-04-24T12:34:46;12.80;98.60
12223;DHT22;6174;49.058;8.524;2023-04-24T12:37:15;12.80;99.30
12223;DHT22;6174;49.058;8.524;2023-04-24T12:39:57;12.80;98.80
12223;DHT22;6174;49.058;8.524;2023-04-24T12:42:26;12.90;98.90
12223;DHT22;6174;49.058;8.524;2023-04-24T12:44:56;13.00;98.20
12223;DHT22;6174;49.058;8.524;2023-04-24T12:47:23;12.90;96.30
12223;DHT22;6174;49.058;8.524;2023-04-24T12:49:50;12.80;94.70
12223;DHT22;6174;49.058;8.524;2023-04-24T12:52:19;12.80;95.80
12223;DHT22;6174;49.058;8.524;2023-04-24T12:54:47;12.80;95.80
12223;DHT22;6174;49.058;8.524;2023-04-24T12:57:13;12.90;96.30
12223;DHT22;6174;49.058;8.524;2023-04-24T12:59:40;12.80;96.30
12223;DHT22;6174;49.058;8.524;2023-04-24T13:02:07;12.90;96.70
12223;DHT22;6174;49.058;8.524;2023-04-24T13:04:35;13.00;96.30
12223;DHT22;6174;49.058;8.524;2023-04-24T13:07:02;13.00;95.00
12223;DHT22;6174;49.058;8.524;2023-04-24T13:09:30;12.90;94.90
12223;DHT22;6174;49.058;8.524;2023-04-24T13:11:57;12.90;94.60
12223;DHT22;6174;49.058;8.524;2023-04-24T13:14:24;12.90;94.90
12223;DHT22;6174;49.058;8.524;2023-04-24T13:16:51;12.90;95.00
12223;DHT22;6174;49.058;8.524;2023-04-24T13:19:18;12.90;94.70
12223;DHT22;6174;49.058;8.524;2023-04-24T13:21:45;13.10;95.70
12223;DHT22;6174;49.058;8.524;2023-04-24T13:24:11;13.10;94.40
12223;DHT22;6174;49.058;8.524;2023-04-24T13:26:40;13.00;93.90
12223;DHT22;6174;49.058;8.524;2023-04-24T13:29:06;13.10;94.20
12223;DHT22;6174;49.058;8.524;2023-04-24T13:31:33;13.20;94.90
12223;DHT22;6174;49.058;8.524;2023-04-24T13:34:00;13.40;94.60
12223;DHT22;6174;49.058;8.524;2023-04-24T13:36:27;13.70;94.40
12223;DHT22;6174;49.058;8.524;2023-04-24T13:38:54;13.80;93.80
12223;DHT22;6174;49.058;8.524;2023-04-24T13:41:21;13.70;92.30
12223;DHT22;6174;49.058;8.524;2023-04-24T13:43:49;13.50;91.60
12223;DHT22;6174;49.058;8.524;2023-04-24T13:46:15;13.50;93.30
12223;DHT22;6174;49.058;8.524;2023-04-24T13:48:42;13.50;93.30
12223;DHT22;6174;49.058;8.524;2023-04-24T13:51:09;13.60;93.40
12223;DHT22;6174;49.058;8.524;2023-04-24T13:53:36;13.50;93.80
12223;DHT22;6174;49.058;8.524;2023-04-24T13:56:04;13.50;94.00
12223;DHT22;6174;49.058;8.524;2023-04-24T13:58:31;13.50;92.80
12223;DHT22;6174;49.058;8.524;2023-04-24T14:00:59;13.40;92.60
12223;DHT22;6174;49.058;8.524;2023-04-24T14:03:26;13.40;92.30
12223;DHT22;6174;49.058;8.524;2023-04-24T14:05:52;13.30;92.50
12223;DHT22;6174;49.058;8.524;2023-04-24T14:08:19;13.30;93.80
12223;DHT22;6174;49.058;8.524;2023-04-24T14:10:46;13.30;92.30
12223;DHT22;6174;49.058;8.524;2023-04-24T14:13:13;13.30;91.90
12223;DHT22;6174;49.058;8.524;2023-04-24T14:15:40;13.20;91.40
12223;DHT22;6174;49.058;8.524;2023-04-24T14:18:08;13.20;91.80
12223;DHT22;6174;49.058;8.524;2023-04-24T14:20:35;13.40;93.00
12223;DHT22;6174;49.058;8.524;2023-04-24T14:23:01;13.70;93.10
12223;DHT22;6174;49.058;8.524;2023-04-24T14:25:29;13.80;93.00
12223;DHT22;6174;49.058;8.524;2023-04-24T14:27:56;13.90;93.50
12223;DHT22;6174;49.058;8.524;2023-04-24T14:30:23;13.90;93.50
12223;DHT22;6174;49.058;8.524;2023-04-24T14:32:50;13.80;93.60
12223;DHT22;6174;49.058;8.524;2023-04-24T14:35:18;13.90;94.50
12223;DHT22;6174;49.058;8.524;2023-04-24T14:37:44;13.80;93.90
12223;DHT22;6174;49.058;8.524;2023-04-24T14:40:11;13.70;94.30
12223;DHT22;6174;49.058;8.524;2023-04-24T14:42:38;13.70;94.50
12223;DHT22;6174;49.058;8.524;2023-04-24T14:45:05;13.60;95.90
12223;DHT22;6174;49.058;8.524;2023-04-24T14:47:33;13.60;95.70
12223;DHT22;6174;49.058;8.524;2023-04-24T14:50:00;13.60;95.30
12223;DHT22;6174;49.058;8.524;2023-04-24T14:52:28;13.70;95.50
12223;DHT22;6174;49.058;8.524;2023-04-24T14:54:54;13.70;96.10
12223;DHT22;6174;49.058;8.524;2023-04-24T14:57:22;13.80;95.50
12223;DHT22;6174;49.058;8.524;2023-04-24T14:59:48;13.90;95.60
12223;DHT22;6174;49.058;8.524;2023-04-24T15:02:15;13.90;95.80
12223;DHT22;6174;49.058;8.524;2023-04-24T15:04:42;14.00;95.20
12223;DHT22;6174;49.058;8.524;2023-04-24T15:07:09;14.00;95.00
12223;DHT22;6174;49.058;8.524;2023-04-24T15:09:37;14.10;94.40
12223;DHT22;6174;49.058;8.524;2023-04-24T15:12:04;14.00;94.00
12223;DHT22;6174;49.058;8.524;2023-04-24T15:14:30;14.00;93.50
12223;DHT22;6174;49.058;8.524;2023-04-24T15:16:57;14.00;93.40
12223;DHT22;6174;49.058;8.524;2023-04-24T15:19:24;14.00;93.10
12223;DHT22;6174;49.058;8.524;2023-04-24T15:21:51;14.00;93.60
12223;DHT22;6174;49.058;8.524;2023-04-24T15:24:17;14.00;93.50
12223;DHT22;6174;49.058;8.524;2023-04-24T15:26:45;14.00;93.30
12223;DHT22;6174;49.058;8.524;2023-04-24T15:29:12;13.90;93.20
12223;DHT22;6174;49.058;8.524;2023-04-24T15:31:39;13.80;93.40
12223;DHT22;6174;49.058;8.524;2023-04-24T15:34:05;13.70;93.00
12223;DHT22;6174;49.058;8.524;2023-04-24T15:36:32;13.60;93.30
12223;DHT22;6174;49.058;8.524;2023-04-24T15:39:00;13.40;94.00
12223;DHT22;6174;49.058;8.524;2023-04-24T15:41:27;13.30;94.10
12223;DHT22;6174;49.058;8.524;2023-04-24T15:43:56;13.20;94.40
12223;DHT22;6174;49.058;8.524;2023-04-24T15:46:22;13.20;94.50
12223;DHT22;6174;49.058;8.524;2023-04-24T15:48:49;13.10;94.90
12223;DHT22;6174;49.058;8.524;2023-04-24T15:51:16;13.20;95.30
12223;DHT22;6174;49.058;8.524;2023-04-24T15:53:43;13.20;95.20
12223;DHT22;6174;49.058;8.524;2023-04-24T15:56:11;13.20;94.50
12223;DHT22;6174;49.058;8.524;2023-04-24T15:58:38;13.00;94.50
12223;DHT22;6174;49.058;8.524;2023-04-24T16:01:06;13.00;95.00
12223;DHT22;6174;49.058;8.524;2023-04-24T16:03:33;13.00;95.50
12223;DHT22;6174;49.058;8.524;2023-04-24T16:05:59;13.10;95.20
12223;DHT22;6174;49.058;8.524;2023-04-24T16:08:26;13.00;95.40
12223;DHT22;6174;49.058;8.524;2023-04-24T16:10:53;13.00;96.40
12223;DHT22;6174;49.058;8.524;2023-04-24T16:13:19;12.90;97.60
12223;DHT22;6174;49.058;8.524;2023-04-24T16:15:46;12.60;99.90
12223;DHT22;6174;49.058;8.524;2023-04-24T16:18:15;12.60;99.90
12223;DHT22;6174;49.058;8.524;2023-04-24T16:20:42;12.50;99.90
12223;DHT22;6174;49.058;8.524;2023-04-24T16:23:09;12.50;99.90
12223;DHT22;6174;49.058;8.524;2023-04-24T16:25:35;12.50;99.90
12223;DHT22;6174;49.058;8.524;2023-04-24T16:28:02;12.50;99.90
12223;DHT22;6174;49.058;8.524;2023-04-24T16:30:29;12.50;99.90
12223;DHT22;6174;49.058;8.524;2023-04-24T16:32:56;12.50;99.90
12223;DHT22;6174;49.058;8.524;2023-04-24T16:35:24;12.50;99.90
12223;DHT22;6174;49.058;8.524;2023-04-24T16:37:51;12.60;99.90
12223;DHT22;6174;49.058;8.524;2023-04-24T16:40:18;12.50;99.90
12223;DHT22;6174;49.058;8.524;2023-04-24T16:42:45;12.50;99.90
12223;DHT22;6174;49.058;8.524;2023-04-24T16:45:13;12.60;99.90
12223;DHT22;6174;49.058;8.524;2023-04-24T16:47:39;12.50;99.90
12223;DHT22;6174;49.058;8.524;2023-04-24T16:50:06;12.50;99.90
12223;DHT22;6174;49.058;8.524;2023-04-24T16:52:35;12.40;99.90
12223;DHT22;6174;49.058;8.524;2023-04-24T16:55:02;12.40;99.90
12223;DHT22;6174;49.058;8.524;2023-04-24T16:57:29;12.40;99.90
12223;DHT22;6174;49.058;8.524;2023-04-24T16:59:56;12.40;99.90
12223;DHT22;6174;49.058;8.524;2023-04-24T17:02:22;12.00;99.90
12223;DHT22;6174;49.058;8.524;2023-04-24T17:04:49;11.60;99.90
12223;DHT22;6174;49.058;8.524;2023-04-24T17:07:16;11.40;99.90
12223;DHT22;6174;49.058;8.524;2023-04-24T17:09:44;11.10;99.90
12223;DHT22;6174;49.058;8.524;2023-04-24T17:12:11;10.90;99.90
12223;DHT22;6174;49.058;8.524;2023-04-24T17:14:37;10.80;99.90
12223;DHT22;6174;49.058;8.524;2023-04-24T17:17:04;10.70;99.90
12223;DHT22;6174;49.058;8.524;2023-04-24T17:19:31;10.70;99.90
12223;DHT22;6174;49.058;8.524;2023-04-24T17:21:58;10.70;99.90
12223;DHT22;6174;49.058;8.524;2023-04-24T17:24:24;10.70;99.90
12223;DHT22;6174;49.058;8.524;2023-04-24T17:26:53;10.80;99.90
12223;DHT22;6174;49.058;8.524;2023-04-24T17:29:19;10.60;99.90
12223;DHT22;6174;49.058;8.524;2023-04-24T17:31:47;10.70;99.90
12223;DHT22;6174;49.058;8.524;2023-04-24T17:34:14;10.70;99.90
12223;DHT22;6174;49.058;8.524;2023-04-24T17:36:40;10.70;99.90
12223;DHT22;6174;49.058;8.524;2023-04-24T17:39:07;10.70;99.90
12223;DHT22;6174;49.058;8.524;2023-04-24T17:41:35;10.70;99.90
12223;DHT22;6174;49.058;8.524;2023-04-24T17:44:03;10.70;99.90
12223;DHT22;6174;49.058;8.524;2023-04-24T17:46:30;10.70;99.90
12223;DHT22;6174;49.058;8.524;2023-04-24T17:48:57;10.70;99.90
12223;DHT22;6174;49.058;8.524;2023-04-24T17:51:24;10.60;99.90
12223;DHT22;6174;49.058;8.524;2023-04-24T17:53:52;10.50;99.90
12223;DHT22;6174;49.058;8.524;2023-04-24T17:56:19;10.40;99.90
12223;DHT22;6174;49.058;8.524;2023-04-24T17:58:46;10.40;99.90
12223;DHT22;6174;49.058;8.524;2023-04-24T18:01:14;10.40;99.90
12223;DHT22;6174;49.058;8.524;2023-04-24T18:03:41;10.40;99.90
12223;DHT22;6174;49.058;8.524;2023-04-24T18:06:08;10.40;99.90
12223;DHT22;6174;49.058;8.524;2023-04-24T18:08:35;10.40;99.90
12223;DHT22;6174;49.058;8.524;2023-04-24T18:11:02;10.40;99.90
12223;DHT22;6174;49.058;8.524;2023-04-24T18:13:29;10.40;99.90
12223;DHT22;6174;49.058;8.524;2023-04-24T18:15:55;10.40;99.90
12223;DHT22;6174;49.058;8.524;2023-04-24T18:18:23;10.40;99.90
12223;DHT22;6174;49.058;8.524;2023-04-24T18:20:50;10.40;99.90
12223;DHT22;6174;49.058;8.524;2023-04-24T18:23:17;10.40;99.90
12223;DHT22;6174;49.058;8.524;2023-04-24T18:25:44;10.40;99.90
12223;DHT22;6174;49.058;8.524;2023-04-24T18:28:11;10.40;99.90
12223;DHT22;6174;49.058;8.524;2023-04-24T18:30:37;10.40;99.90
12223;DHT22;6174;49.058;8.524;2023-04-24T18:33:04;10.40;99.90
12223;DHT22;6174;49.058;8.524;2023-04-24T18:35:33;10.40;99.90
12223;DHT22;6174;49.058;8.524;2023-04-24T18:37:59;10.40;99.90
12223;DHT22;6174;49.058;8.524;2023-04-24T18:40:26;10.40;99.90
12223;DHT22;6174;49.058;8.524;2023-04-24T18:42:54;10.40;99.90
12223;DHT22;6174;49.058;8.524;2023-04-24T18:45:21;10.40;99.90
12223;DHT22;6174;49.058;8.524;2023-04-24T18:47:48;10.30;99.90
12223;DHT22;6174;49.058;8.524;2023-04-24T18:50:15;10.30;99.90
12223;DHT22;6174;49.058;8.524;2023-04-24T18:52:45;10.20;99.90
12223;DHT22;6174;49.058;8.524;2023-04-24T18:55:11;10.30;99.90
12223;DHT22;6174;49.058;8.524;2023-04-24T18:57:38;10.30;99.90
12223;DHT22;6174;49.058;8.524;2023-04-24T19:00:06;10.20;99.90
12223;DHT22;6174;49.058;8.524;2023-04-24T19:02:33;10.30;99.90
12223;DHT22;6174;49.058;8.524;2023-04-24T19:05:00;10.30;99.90
12223;DHT22;6174;49.058;8.524;2023-04-24T19:07:27;10.20;99.90
12223;DHT22;6174;49.058;8.524;2023-04-24T19:09:55;10.30;99.90
12223;DHT22;6174;49.058;8.524;2023-04-24T19:12:22;10.30;99.90
12223;DHT22;6174;49.058;8.524;2023-04-24T19:14:49;10.30;99.90
12223;DHT22;6174;49.058;8.524;2023-04-24T19:17:20;10.30;99.90
12223;DHT22;6174;49.058;8.524;2023-04-24T19:19:49;10.30;99.90
12223;DHT22;6174;49.058;8.524;2023-04-24T19:22:17;10.30;99.90
12223;DHT22;6174;49.058;8.524;2023-04-24T19:24:44;10.40;99.90
12223;DHT22;6174;49.058;8.524;2023-04-24T19:27:12;10.30;99.90
12223;DHT22;6174;49.058;8.524;2023-04-24T19:29:39;10.20;99.90
12223;DHT22;6174;49.058;8.524;2023-04-24T19:32:06;10.20;99.90
12223;DHT22;6174;49.058;8.524;2023-04-24T19:34:33;10.20;99.90
12223;DHT22;6174;49.058;8.524;2023-04-24T19:37:00;10.20;99.90
12223;DHT22;6174;49.058;8.524;2023-04-24T19:39:27;10.10;99.90
12223;DHT22;6174;49.058;8.524;2023-04-24T19:41:56;10.00;99.90
12223;DHT22;6174;49.058;8.524;2023-04-24T19:44:26;10.10;99.90
12223;DHT22;6174;49.058;8.524;2023-04-24T19:46:52;10.00;99.90
12223;DHT22;6174;49.058;8.524;2023-04-24T19:49:19;10.00;99.90
12223;DHT22;6174;49.058;8.524;2023-04-24T19:51:46;10.00;99.90
12223;DHT22;6174;49.058;8.524;2023-04-24T19:54:13;9.90;99.90
12223;DHT22;6174;49.058;8.524;2023-04-24T19:56:40;9.90;99.90
12223;DHT22;6174;49.058;8.524;2023-04-24T19:59:06;9.90;99.90
12223;DHT22;6174;49.058;8.524;2023-04-24T20:01:35;9.90;99.90
12223;DHT22;6174;49.058;8.524;2023-04-24T20:04:04;9.90;99.90
12223;DHT22;6174;49.058;8.524;2023-04-24T20:06:32;9.90;99.90
12223;DHT22;6174;49.058;8.524;2023-04-24T20:08:58;9.90;99.90
12223;DHT22;6174;49.058;8.524;2023-04-24T20:11:25;9.80;99.90
12223;DHT22;6174;49.058;8.524;2023-04-24T20:13:52;9.80;99.90
12223;DHT22;6174;49.058;8.524;2023-04-24T20:16:19;9.80;99.90
12223;DHT22;6174;49.058;8.524;2023-04-24T20:18:47;9.80;99.90
12223;DHT22;6174;49.058;8.524;2023-04-24T20:21:13;9.70;99.90
12223;DHT22;6174;49.058;8.524;2023-04-24T20:23:40;9.70;99.90
12223;DHT22;6174;49.058;8.524;2023-04-24T20:26:07;9.80;99.90
12223;DHT22;6174;49.058;8.524;2023-04-24T20:28:35;9.80;99.90
12223;DHT22;6174;49.058;8.524;2023-04-24T20:31:02;9.90;99.90
12223;DHT22;6174;49.058;8.524;2023-04-24T20:33:29;9.80;99.90
12223;DHT22;6174;49.058;8.524;2023-04-24T20:35:58;9.90;99.90
12223;DHT22;6174;49.058;8.524;2023-04-24T20:38:24;9.90;99.90
12223;DHT22;6174;49.058;8.524;2023-04-24T20:40:51;9.90;99.90
12223;DHT22;6174;49.058;8.524;2023-04-24T20:43:19;9.90;99.90
12223;DHT22;6174;49.058;8.524;2023-04-24T20:45:45;9.90;99.90
12223;DHT22;6174;49.058;8.524;2023-04-24T20:48:12;9.80;99.90
12223;DHT22;6174;49.058;8.524;2023-04-24T20:50:39;9.80;99.90